sensor_id;sensor_type;location;lat;lon;timestamp;temperature;humidity
8231;DHT22;4156;50.908;6.974;2022-07-10T00:00:13;19.90;99.90
8231;DHT22;4156;50.908;6.974;2022-07-10T00:02:40;19.90;99.90
8231;DHT22;4156;50.908;6.974;2022-07-10T00:05:07;19.80;99.90
8231;DHT22;4156;50.908;6.974;2022-07-10T00:07:33;19.70;99.90
8231;DHT22;4156;50.908;6.974;2022-07-10T00:09:58;19.70;99.90
8231;DHT22;4156;50.908;6.974;2022-07-10T00:12:24;19.60;99.90
8231;DHT22;4156;50.908;6.974;2022-07-10T00:14:50;19.60;99.90
8231;DHT22;4156;50.908;6.974;2022-07-10T00:17:15;19.60;99.90
8231;DHT22;4156;50.908;6.974;2022-07-10T00:19:41;19.60;99.90
8231;DHT22;4156;50.908;6.974;2022-07-10T00:22:06;19.50;99.90
8231;DHT22;4156;50.908;6.974;2022-07-10T00:24:32;19.60;99.90
8231;DHT22;4156;50.908;6.974;2022-07-10T00:26:58;19.40;99.90
8231;DHT22;4156;50.908;6.974;2022-07-10T00:29:23;19.40;99.90
8231;DHT22;4156;50.908;6.974;2022-07-10T00:31:49;19.30;99.90
8231;DHT22;4156;50.908;6.974;2022-07-10T00:34:14;19.30;99.90
8231;DHT22;4156;50.908;6.974;2022-07-10T00:36:40;19.20;99.90
8231;DHT22;4156;50.908;6.974;2022-07-10T00:39:05;19.30;99.90
8231;DHT22;4156;50.908;6.974;2022-07-10T00:41:31;19.20;99.90
8231;DHT22;4156;50.908;6.974;2022-07-10T00:44:01;19.20;99.90
8231;DHT22;4156;50.908;6.974;2022-07-10T00:46:28;19.20;99.90
8231;DHT22;4156;50.908;6.974;2022-07-10T00:48:54;19.10;99.90
8231;DHT22;4156;50.908;6.974;2022-07-10T00:51:21;19.10;99.90
8231;DHT22;4156;50.908;6.974;2022-07-10T00:53:50;19.00;99.90
8231;DHT22;4156;50.908;6.974;2022-07-10T00:56:18;18.90;99.90
8231;DHT22;4156;50.908;6.974;2022-07-10T00:58:46;19.00;99.90
8231;DHT22;4156;50.908;6.974;2022-07-10T01:01:12;18.90;99.90
8231;DHT22;4156;50.908;6.974;2022-07-10T01:03:37;19.00;99.90
8231;DHT22;4156;50.908;6.974;2022-07-10T01:06:03;19.00;99.90
8231;DHT22;4156;50.908;6.974;2022-07-10T01:08:29;18.90;99.90
8231;DHT22;4156;50.908;6.974;2022-07-10T01:10:55;18.90;99.90
8231;DHT22;4156;50.908;6.974;2022-07-10T01:13:21;18.80;99.90
8231;DHT22;4156;50.908;6.974;2022-07-10T01:15:47;18.80;99.90
8231;DHT22;4156;50.908;6.974;2022-07-10T01:18:14;18.70;99.90
8231;DHT22;4156;50.908;6.974;2022-07-10T01:20:40;18.70;99.90
8231;DHT22;4156;50.908;6.974;2022-07-10T01:23:05;18.70;99.90
8231;DHT22;4156;50.908;6.974;2022-07-10T01:25:31;18.70;99.90
8231;DHT22;4156;50.908;6.974;2022-07-10T01:27:57;18.60;99.90
8231;DHT22;4156;50.908;6.974;2022-07-10T01:30:24;18.70;99.90
8231;DHT22;4156;50.908;6.974;2022-07-10T01:32:50;18.60;99.90
8231;DHT22;4156;50.908;6.974;2022-07-10T01:35:15;18.60;99.90
8231;DHT22;4156;50.908;6.974;2022-07-10T01:37:41;18.50;99.90
8231;DHT22;4156;50.908;6.974;2022-07-10T01:40:08;18.50;99.90
8231;DHT22;4156;50.908;6.974;2022-07-10T01:42:34;18.50;99.90
8231;DHT22;4156;50.908;6.974;2022-07-10T01:44:59;18.50;99.90
8231;DHT22;4156;50.908;6.974;2022-07-10T01:47:25;18.40;99.90
8231;DHT22;4156;50.908;6.974;2022-07-10T01:49:53;18.40;99.90
8231;DHT22;4156;50.908;6.974;2022-07-10T01:52:19;18.40;99.90
8231;DHT22;4156;50.908;6.974;2022-07-10T01:54:45;18.40;99.90
8231;DHT22;4156;50.908;6.974;2022-07-10T01:57:11;18.40;99.90
8231;DHT22;4156;50.908;6.974;2022-07-10T01:59:36;18.40;99.90
8231;DHT22;4156;50.908;6.974;2022-07-10T02:02:02;18.40;99.90
8231;DHT22;4156;50.908;6.974;2022-07-10T02:04:28;18.30;99.90
8231;DHT22;4156;50.908;6.974;2022-07-10T02:07:13;18.30;99.90
8231;DHT22;4156;50.908;6.974;2022-07-10T02:09:39;18.30;99.90
8231;DHT22;4156;50.908;6.974;2022-07-10T02:12:10;18.30;99.90
8231;DHT22;4156;50.908;6.974;2022-07-10T02:14:36;18.20;99.90
8231;DHT22;4156;50.908;6.974;2022-07-10T02:17:03;18.30;99.90
8231;DHT22;4156;50.908;6.974;2022-07-10T02:19:29;18.20;99.90
8231;DHT22;4156;50.908;6.974;2022-07-10T02:21:54;18.40;99.90
8231;DHT22;4156;50.908;6.974;2022-07-10T02:24:20;18.20;99.90
8231;DHT22;4156;50.908;6.974;2022-07-10T02:26:46;18.30;99.90
8231;DHT22;4156;50.908;6.974;2022-07-10T02:29:11;18.20;99.90
8231;DHT22;4156;50.908;6.974;2022-07-10T02:31:37;18.30;99.90
8231;DHT22;4156;50.908;6.974;2022-07-10T02:34:09;18.30;99.90
8231;DHT22;4156;50.908;6.974;2022-07-10T02:36:35;18.20;99.90
8231;DHT22;4156;50.908;6.974;2022-07-10T02:39:02;18.30;99.90
8231;DHT22;4156;50.908;6.974;2022-07-10T02:41:28;18.20;99.90
8231;DHT22;4156;50.908;6.974;2022-07-10T02:43:54;18.30;99.90
8231;DHT22;4156;50.908;6.974;2022-07-10T02:46:19;18.30;99.90
8231;DHT22;4156;50.908;6.974;2022-07-10T02:48:45;18.20;99.90
8231;DHT22;4156;50.908;6.974;2022-07-10T02:51:10;18.20;99.90
8231;DHT22;4156;50.908;6.974;2022-07-10T02:53:36;18.20;99.90
8231;DHT22;4156;50.908;6.974;2022-07-10T02:56:01;18.20;99.90
8231;DHT22;4156;50.908;6.974;2022-07-10T02:58:27;18.10;99.90
8231;DHT22;4156;50.908;6.974;2022-07-10T03:00:52;18.10;99.90
8231;DHT22;4156;50.908;6.974;2022-07-10T03:03:18;18.10;99.90
8231;DHT22;4156;50.908;6.974;2022-07-10T03:05:45;18.10;99.90
8231;DHT22;4156;50.908;6.974;2022-07-10T03:08:11;18.10;99.90
8231;DHT22;4156;50.908;6.974;2022-07-10T03:10:36;18.10;99.90
8231;DHT22;4156;50.908;6.974;2022-07-10T03:13:02;18.00;99.90
8231;DHT22;4156;50.908;6.974;2022-07-10T03:15:28;18.00;99.90
8231;DHT22;4156;50.908;6.974;2022-07-10T03:17:53;18.00;99.90
8231;DHT22;4156;50.908;6.974;2022-07-10T03:20:19;18.00;99.90
8231;DHT22;4156;50.908;6.974;2022-07-10T03:22:45;18.00;99.90
8231;DHT22;4156;50.908;6.974;2022-07-10T03:25:10;18.00;99.90
8231;DHT22;4156;50.908;6.974;2022-07-10T03:27:36;17.90;99.90
8231;DHT22;4156;50.908;6.974;2022-07-10T03:30:02;17.90;99.90
8231;DHT22;4156;50.908;6.974;2022-07-10T03:32:28;17.90;99.90
8231;DHT22;4156;50.908;6.974;2022-07-10T03:34:53;17.90;99.90
8231;DHT22;4156;50.908;6.974;2022-07-10T03:37:19;17.90;99.90
8231;DHT22;4156;50.908;6.974;2022-07-10T03:39:45;17.90;99.90
8231;DHT22;4156;50.908;6.974;2022-07-10T03:42:10;17.90;99.90
8231;DHT22;4156;50.908;6.974;2022-07-10T03:44:36;17.90;99.90
8231;DHT22;4156;50.908;6.974;2022-07-10T03:47:01;17.90;99.90
8231;DHT22;4156;50.908;6.974;2022-07-10T03:49:27;17.90;99.90
8231;DHT22;4156;50.908;6.974;2022-07-10T03:51:52;17.90;99.90
8231;DHT22;4156;50.908;6.974;2022-07-10T03:54:18;17.90;99.90
8231;DHT22;4156;50.908;6.974;2022-07-10T03:56:43;17.90;99.90
8231;DHT22;4156;50.908;6.974;2022-07-10T03:59:27;17.90;99.90
8231;DHT22;4156;50.908;6.974;2022-07-10T04:01:53;17.90;99.90
8231;DHT22;4156;50.908;6.974;2022-07-10T04:04:19;17.90;99.90
8231;DHT22;4156;50.908;6.974;2022-07-10T04:06:44;17.90;99.90
8231;DHT22;4156;50.908;6.974;2022-07-10T04:09:10;17.90;99.90
8231;DHT22;4156;50.908;6.974;2022-07-10T04:11:35;17.90;99.90
8231;DHT22;4156;50.908;6.974;2022-07-10T04:14:01;17.90;99.90
8231;DHT22;4156;50.908;6.974;2022-07-10T04:16:27;17.80;99.90
8231;DHT22;4156;50.908;6.974;2022-07-10T04:18:52;17.90;99.90
8231;DHT22;4156;50.908;6.974;2022-07-10T04:21:19;17.80;99.90
8231;DHT22;4156;50.908;6.974;2022-07-10T04:23:44;17.80;99.90
8231;DHT22;4156;50.908;6.974;2022-07-10T04:26:10;17.80;99.90
8231;DHT22;4156;50.908;6.974;2022-07-10T04:28:35;17.80;99.90
8231;DHT22;4156;50.908;6.974;2022-07-10T04:31:01;17.90;99.90
8231;DHT22;4156;50.908;6.974;2022-07-10T04:33:26;18.00;99.90
8231;DHT22;4156;50.908;6.974;2022-07-10T04:35:52;18.00;99.90
8231;DHT22;4156;50.908;6.974;2022-07-10T04:38:18;18.10;99.90
8231;DHT22;4156;50.908;6.974;2022-07-10T04:40:44;18.10;99.90
8231;DHT22;4156;50.908;6.974;2022-07-10T04:43:09;18.20;99.90
8231;DHT22;4156;50.908;6.974;2022-07-10T04:45:38;18.20;99.90
8231;DHT22;4156;50.908;6.974;2022-07-10T04:48:06;18.20;99.90
8231;DHT22;4156;50.908;6.974;2022-07-10T04:50:31;18.20;99.90
8231;DHT22;4156;50.908;6.974;2022-07-10T04:52:57;18.30;99.90
8231;DHT22;4156;50.908;6.974;2022-07-10T04:55:23;18.30;99.90
8231;DHT22;4156;50.908;6.974;2022-07-10T04:57:49;18.40;99.90
8231;DHT22;4156;50.908;6.974;2022-07-10T05:00:15;18.40;99.90
8231;DHT22;4156;50.908;6.974;2022-07-10T05:02:41;18.50;99.90
8231;DHT22;4156;50.908;6.974;2022-07-10T05:05:07;18.40;99.90
8231;DHT22;4156;50.908;6.974;2022-07-10T05:07:33;18.40;99.90
8231;DHT22;4156;50.908;6.974;2022-07-10T05:09:58;18.30;99.90
8231;DHT22;4156;50.908;6.974;2022-07-10T05:12:24;18.30;99.90
8231;DHT22;4156;50.908;6.974;2022-07-10T05:14:49;18.30;99.90
8231;DHT22;4156;50.908;6.974;2022-07-10T05:17:15;18.30;99.90
8231;DHT22;4156;50.908;6.974;2022-07-10T05:19:40;18.20;99.90
8231;DHT22;4156;50.908;6.974;2022-07-10T05:22:06;18.20;99.90
8231;DHT22;4156;50.908;6.974;2022-07-10T05:24:32;18.30;99.90
8231;DHT22;4156;50.908;6.974;2022-07-10T05:26:58;18.30;99.90
8231;DHT22;4156;50.908;6.974;2022-07-10T05:29:23;18.40;99.90
8231;DHT22;4156;50.908;6.974;2022-07-10T05:31:49;18.50;99.90
8231;DHT22;4156;50.908;6.974;2022-07-10T05:34:14;18.60;99.90
8231;DHT22;4156;50.908;6.974;2022-07-10T05:36:40;18.60;99.90
8231;DHT22;4156;50.908;6.974;2022-07-10T05:39:06;18.80;99.90
8231;DHT22;4156;50.908;6.974;2022-07-10T05:41:32;18.80;99.90
8231;DHT22;4156;50.908;6.974;2022-07-10T05:43:59;18.80;99.90
8231;DHT22;4156;50.908;6.974;2022-07-10T05:46:25;18.90;99.90
8231;DHT22;4156;50.908;6.974;2022-07-10T05:48:50;19.00;99.90
8231;DHT22;4156;50.908;6.974;2022-07-10T05:51:16;19.10;99.90
8231;DHT22;4156;50.908;6.974;2022-07-10T05:53:42;19.20;99.90
8231;DHT22;4156;50.908;6.974;2022-07-10T05:56:07;19.30;99.90
8231;DHT22;4156;50.908;6.974;2022-07-10T05:58:33;19.40;99.90
8231;DHT22;4156;50.908;6.974;2022-07-10T06:00:58;19.40;99.90
8231;DHT22;4156;50.908;6.974;2022-07-10T06:03:24;19.60;99.90
8231;DHT22;4156;50.908;6.974;2022-07-10T06:05:50;19.50;99.90
8231;DHT22;4156;50.908;6.974;2022-07-10T06:08:15;19.60;99.90
8231;DHT22;4156;50.908;6.974;2022-07-10T06:10:41;19.60;99.90
8231;DHT22;4156;50.908;6.974;2022-07-10T06:13:09;20.30;99.90
8231;DHT22;4156;50.908;6.974;2022-07-10T06:15:35;19.80;99.90
8231;DHT22;4156;50.908;6.974;2022-07-10T06:18:00;19.90;99.90
8231;DHT22;4156;50.908;6.974;2022-07-10T06:20:26;19.90;99.90
8231;DHT22;4156;50.908;6.974;2022-07-10T06:22:52;19.90;99.90
8231;DHT22;4156;50.908;6.974;2022-07-10T06:25:18;19.90;99.90
8231;DHT22;4156;50.908;6.974;2022-07-10T06:27:43;19.80;99.90
8231;DHT22;4156;50.908;6.974;2022-07-10T06:30:09;19.80;99.90
8231;DHT22;4156;50.908;6.974;2022-07-10T06:32:35;19.70;99.90
8231;DHT22;4156;50.908;6.974;2022-07-10T06:35:00;19.60;99.90
8231;DHT22;4156;50.908;6.974;2022-07-10T06:37:27;19.60;99.90
8231;DHT22;4156;50.908;6.974;2022-07-10T06:39:52;19.60;99.90
8231;DHT22;4156;50.908;6.974;2022-07-10T06:42:18;19.70;99.90
8231;DHT22;4156;50.908;6.974;2022-07-10T06:44:44;19.70;99.90
8231;DHT22;4156;50.908;6.974;2022-07-10T06:47:13;19.60;99.90
8231;DHT22;4156;50.908;6.974;2022-07-10T06:49:58;19.60;99.90
8231;DHT22;4156;50.908;6.974;2022-07-10T06:52:24;19.50;99.90
8231;DHT22;4156;50.908;6.974;2022-07-10T06:54:50;19.60;99.90
8231;DHT22;4156;50.908;6.974;2022-07-10T06:57:16;19.60;99.90
8231;DHT22;4156;50.908;6.974;2022-07-10T06:59:43;19.60;99.90
8231;DHT22;4156;50.908;6.974;2022-07-10T07:02:09;19.60;99.90
8231;DHT22;4156;50.908;6.974;2022-07-10T07:04:34;19.70;99.90
8231;DHT22;4156;50.908;6.974;2022-07-10T07:07:02;19.90;99.90
8231;DHT22;4156;50.908;6.974;2022-07-10T07:09:27;19.90;99.90
8231;DHT22;4156;50.908;6.974;2022-07-10T07:11:53;19.90;99.90
8231;DHT22;4156;50.908;6.974;2022-07-10T07:14:18;19.90;99.90
8231;DHT22;4156;50.908;6.974;2022-07-10T07:16:44;19.90;99.90
8231;DHT22;4156;50.908;6.974;2022-07-10T07:19:23;19.90;99.90
8231;DHT22;4156;50.908;6.974;2022-07-10T07:21:59;19.80;99.90
8231;DHT22;4156;50.908;6.974;2022-07-10T07:24:44;19.70;99.90
8231;DHT22;4156;50.908;6.974;2022-07-10T07:27:13;19.70;99.90
8231;DHT22;4156;50.908;6.974;2022-07-10T07:29:38;19.60;99.90
8231;DHT22;4156;50.908;6.974;2022-07-10T07:32:04;19.60;99.90
8231;DHT22;4156;50.908;6.974;2022-07-10T07:34:30;19.50;99.90
8231;DHT22;4156;50.908;6.974;2022-07-10T07:36:57;19.50;99.90
8231;DHT22;4156;50.908;6.974;2022-07-10T07:39:22;19.50;99.90
8231;DHT22;4156;50.908;6.974;2022-07-10T07:41:48;19.50;99.90
8231;DHT22;4156;50.908;6.974;2022-07-10T07:44:13;19.50;99.90
8231;DHT22;4156;50.908;6.974;2022-07-10T07:46:43;19.50;99.90
8231;DHT22;4156;50.908;6.974;2022-07-10T07:49:09;19.50;99.90
8231;DHT22;4156;50.908;6.974;2022-07-10T07:51:34;19.60;99.90
8231;DHT22;4156;50.908;6.974;2022-07-10T07:54:00;19.50;99.90
8231;DHT22;4156;50.908;6.974;2022-07-10T07:56:25;19.50;99.90
8231;DHT22;4156;50.908;6.974;2022-07-10T07:58:51;19.50;99.90
8231;DHT22;4156;50.908;6.974;2022-07-10T08:01:16;19.60;99.90
8231;DHT22;4156;50.908;6.974;2022-07-10T08:03:45;19.60;99.90
8231;DHT22;4156;50.908;6.974;2022-07-10T08:06:10;19.60;99.90
8231;DHT22;4156;50.908;6.974;2022-07-10T08:08:36;19.60;99.90
8231;DHT22;4156;50.908;6.974;2022-07-10T08:11:01;19.60;99.90
8231;DHT22;4156;50.908;6.974;2022-07-10T08:13:27;19.70;99.90
8231;DHT22;4156;50.908;6.974;2022-07-10T08:15:54;19.80;99.90
8231;DHT22;4156;50.908;6.974;2022-07-10T08:18:19;19.80;99.90
8231;DHT22;4156;50.908;6.974;2022-07-10T08:20:45;19.80;99.90
8231;DHT22;4156;50.908;6.974;2022-07-10T08:23:10;19.80;99.90
8231;DHT22;4156;50.908;6.974;2022-07-10T08:25:36;19.80;99.90
8231;DHT22;4156;50.908;6.974;2022-07-10T08:28:05;19.80;99.90
8231;DHT22;4156;50.908;6.974;2022-07-10T08:30:35;19.70;99.90
8231;DHT22;4156;50.908;6.974;2022-07-10T08:33:00;19.70;99.90
8231;DHT22;4156;50.908;6.974;2022-07-10T08:35:26;19.70;99.90
8231;DHT22;4156;50.908;6.974;2022-07-10T08:37:52;19.70;99.90
8231;DHT22;4156;50.908;6.974;2022-07-10T08:40:21;19.70;99.90
8231;DHT22;4156;50.908;6.974;2022-07-10T08:42:48;19.70;99.90
8231;DHT22;4156;50.908;6.974;2022-07-10T08:45:14;19.70;99.90
8231;DHT22;4156;50.908;6.974;2022-07-10T08:47:41;19.60;99.90
8231;DHT22;4156;50.908;6.974;2022-07-10T08:50:22;19.70;99.90
8231;DHT22;4156;50.908;6.974;2022-07-10T08:53:01;19.70;99.90
8231;DHT22;4156;50.908;6.974;2022-07-10T08:55:29;19.70;99.90
8231;DHT22;4156;50.908;6.974;2022-07-10T08:57:55;19.70;99.90
8231;DHT22;4156;50.908;6.974;2022-07-10T09:00:24;19.80;99.90
8231;DHT22;4156;50.908;6.974;2022-07-10T09:02:49;19.80;99.90
8231;DHT22;4156;50.908;6.974;2022-07-10T09:05:15;19.70;99.90
8231;DHT22;4156;50.908;6.974;2022-07-10T09:07:41;19.70;99.90
8231;DHT22;4156;50.908;6.974;2022-07-10T09:10:09;19.70;99.90
8231;DHT22;4156;50.908;6.974;2022-07-10T09:12:58;19.70;99.90
8231;DHT22;4156;50.908;6.974;2022-07-10T09:15:25;19.70;99.90
8231;DHT22;4156;50.908;6.974;2022-07-10T09:20:29;19.70;99.90
8231;DHT22;4156;50.908;6.974;2022-07-10T09:22:56;19.80;99.90
8231;DHT22;4156;50.908;6.974;2022-07-10T09:25:30;19.80;99.90
8231;DHT22;4156;50.908;6.974;2022-07-10T09:27:57;19.80;99.90
8231;DHT22;4156;50.908;6.974;2022-07-10T09:30:51;19.90;99.90
8231;DHT22;4156;50.908;6.974;2022-07-10T09:36:10;19.80;99.90
8231;DHT22;4156;50.908;6.974;2022-07-10T09:41:28;19.90;99.90
8231;DHT22;4156;50.908;6.974;2022-07-10T09:44:04;19.90;99.90
8231;DHT22;4156;50.908;6.974;2022-07-10T09:46:35;19.90;99.90
8231;DHT22;4156;50.908;6.974;2022-07-10T09:49:13;19.90;99.90
8231;DHT22;4156;50.908;6.974;2022-07-10T09:51:46;19.90;99.90
8231;DHT22;4156;50.908;6.974;2022-07-10T09:54:12;19.90;99.90
8231;DHT22;4156;50.908;6.974;2022-07-10T09:56:45;19.90;99.90
8231;DHT22;4156;50.908;6.974;2022-07-10T09:59:14;19.90;99.90
8231;DHT22;4156;50.908;6.974;2022-07-10T10:01:45;19.90;99.90
8231;DHT22;4156;50.908;6.974;2022-07-10T10:04:15;20.00;99.90
8231;DHT22;4156;50.908;6.974;2022-07-10T10:06:42;20.00;99.90
8231;DHT22;4156;50.908;6.974;2022-07-10T10:11:50;20.00;99.90
8231;DHT22;4156;50.908;6.974;2022-07-10T10:14:18;20.00;99.90
8231;DHT22;4156;50.908;6.974;2022-07-10T10:16:46;19.90;99.90
8231;DHT22;4156;50.908;6.974;2022-07-10T10:19:13;19.90;99.90
8231;DHT22;4156;50.908;6.974;2022-07-10T10:21:59;19.90;99.90
8231;DHT22;4156;50.908;6.974;2022-07-10T10:24:25;19.90;99.90
8231;DHT22;4156;50.908;6.974;2022-07-10T10:26:51;19.90;99.90
8231;DHT22;4156;50.908;6.974;2022-07-10T10:29:17;19.90;99.90
8231;DHT22;4156;50.908;6.974;2022-07-10T10:31:43;19.90;99.90
8231;DHT22;4156;50.908;6.974;2022-07-10T10:34:09;19.80;99.90
8231;DHT22;4156;50.908;6.974;2022-07-10T10:39:11;19.80;99.90
8231;DHT22;4156;50.908;6.974;2022-07-10T10:41:54;19.80;99.90
8231;DHT22;4156;50.908;6.974;2022-07-10T10:44:21;19.70;99.90
8231;DHT22;4156;50.908;6.974;2022-07-10T10:49:16;19.70;99.90
8231;DHT22;4156;50.908;6.974;2022-07-10T10:52:04;19.70;99.90
8231;DHT22;4156;50.908;6.974;2022-07-10T10:59:57;19.80;99.90
8231;DHT22;4156;50.908;6.974;2022-07-10T11:02:32;19.80;99.90
8231;DHT22;4156;50.908;6.974;2022-07-10T11:07:58;19.90;99.90
8231;DHT22;4156;50.908;6.974;2022-07-10T11:10:49;19.90;99.90
8231;DHT22;4156;50.908;6.974;2022-07-10T11:13:18;19.90;99.90
8231;DHT22;4156;50.908;6.974;2022-07-10T11:15:48;19.90;99.90
8231;DHT22;4156;50.908;6.974;2022-07-10T11:18:15;20.00;99.90
8231;DHT22;4156;50.908;6.974;2022-07-10T11:20:44;20.00;99.90
8231;DHT22;4156;50.908;6.974;2022-07-10T11:23:41;20.10;99.90
8231;DHT22;4156;50.908;6.974;2022-07-10T11:26:10;20.10;99.90
8231;DHT22;4156;50.908;6.974;2022-07-10T11:31:25;20.10;99.90
8231;DHT22;4156;50.908;6.974;2022-07-10T11:33:53;20.10;99.90
8231;DHT22;4156;50.908;6.974;2022-07-10T11:36:24;20.10;99.90
8231;DHT22;4156;50.908;6.974;2022-07-10T11:39:07;20.10;99.90
8231;DHT22;4156;50.908;6.974;2022-07-10T11:41:34;20.10;99.90
8231;DHT22;4156;50.908;6.974;2022-07-10T11:44:12;20.10;99.90
8231;DHT22;4156;50.908;6.974;2022-07-10T11:46:38;20.10;99.90
8231;DHT22;4156;50.908;6.974;2022-07-10T11:49:05;20.00;99.90
8231;DHT22;4156;50.908;6.974;2022-07-10T11:51:35;20.10;99.90
8231;DHT22;4156;50.908;6.974;2022-07-10T11:54:03;20.00;99.90
8231;DHT22;4156;50.908;6.974;2022-07-10T11:56:36;20.00;99.90
8231;DHT22;4156;50.908;6.974;2022-07-10T11:59:06;19.90;99.90
8231;DHT22;4156;50.908;6.974;2022-07-10T12:01:35;20.20;99.90
8231;DHT22;4156;50.908;6.974;2022-07-10T12:04:04;20.00;99.90
8231;DHT22;4156;50.908;6.974;2022-07-10T12:06:31;20.00;99.90
8231;DHT22;4156;50.908;6.974;2022-07-10T12:09:08;20.00;99.90
8231;DHT22;4156;50.908;6.974;2022-07-10T12:11:34;20.00;99.90
8231;DHT22;4156;50.908;6.974;2022-07-10T12:16:40;20.00;99.90
8231;DHT22;4156;50.908;6.974;2022-07-10T12:19:09;20.00;99.90
8231;DHT22;4156;50.908;6.974;2022-07-10T12:21:36;20.00;99.90
8231;DHT22;4156;50.908;6.974;2022-07-10T12:24:02;20.00;99.90
8231;DHT22;4156;50.908;6.974;2022-07-10T12:26:38;20.00;99.90
8231;DHT22;4156;50.908;6.974;2022-07-10T12:29:05;20.10;99.90
8231;DHT22;4156;50.908;6.974;2022-07-10T12:31:33;20.10;99.90
8231;DHT22;4156;50.908;6.974;2022-07-10T12:34:01;20.10;99.90
8231;DHT22;4156;50.908;6.974;2022-07-10T12:36:48;20.10;99.90
8231;DHT22;4156;50.908;6.974;2022-07-10T12:39:17;20.10;99.90
8231;DHT22;4156;50.908;6.974;2022-07-10T12:42:03;20.10;99.90
8231;DHT22;4156;50.908;6.974;2022-07-10T12:45:14;20.10;99.90
8231;DHT22;4156;50.908;6.974;2022-07-10T12:47:47;20.20;99.90
8231;DHT22;4156;50.908;6.974;2022-07-10T12:50:15;20.10;99.90
8231;DHT22;4156;50.908;6.974;2022-07-10T12:52:44;20.10;99.90
8231;DHT22;4156;50.908;6.974;2022-07-10T12:55:15;20.20;99.90
8231;DHT22;4156;50.908;6.974;2022-07-10T13:00:14;20.10;99.90
8231;DHT22;4156;50.908;6.974;2022-07-10T13:02:40;20.20;99.90
8231;DHT22;4156;50.908;6.974;2022-07-10T13:05:07;20.20;99.90
8231;DHT22;4156;50.908;6.974;2022-07-10T13:07:34;20.20;99.90
8231;DHT22;4156;50.908;6.974;2022-07-10T13:10:01;20.30;99.90
8231;DHT22;4156;50.908;6.974;2022-07-10T13:12:27;20.30;99.90
8231;DHT22;4156;50.908;6.974;2022-07-10T13:14:53;20.30;99.90
8231;DHT22;4156;50.908;6.974;2022-07-10T13:17:18;20.20;99.90
8231;DHT22;4156;50.908;6.974;2022-07-10T13:19:44;20.20;99.90
8231;DHT22;4156;50.908;6.974;2022-07-10T13:22:09;20.20;99.90
8231;DHT22;4156;50.908;6.974;2022-07-10T13:24:35;20.30;99.90
8231;DHT22;4156;50.908;6.974;2022-07-10T13:27:00;20.30;99.90
8231;DHT22;4156;50.908;6.974;2022-07-10T13:29:26;20.30;99.90
8231;DHT22;4156;50.908;6.974;2022-07-10T13:31:51;20.50;99.90
8231;DHT22;4156;50.908;6.974;2022-07-10T13:34:17;20.40;99.90
8231;DHT22;4156;50.908;6.974;2022-07-10T13:36:42;20.40;99.90
8231;DHT22;4156;50.908;6.974;2022-07-10T13:39:08;20.50;99.90
8231;DHT22;4156;50.908;6.974;2022-07-10T13:41:34;20.50;99.90
8231;DHT22;4156;50.908;6.974;2022-07-10T13:43:59;20.50;99.90
8231;DHT22;4156;50.908;6.974;2022-07-10T13:46:27;20.50;99.90
8231;DHT22;4156;50.908;6.974;2022-07-10T13:48:52;20.50;99.90
8231;DHT22;4156;50.908;6.974;2022-07-10T13:51:18;20.40;99.90
8231;DHT22;4156;50.908;6.974;2022-07-10T13:53:43;20.40;99.90
8231;DHT22;4156;50.908;6.974;2022-07-10T13:56:09;20.50;99.90
8231;DHT22;4156;50.908;6.974;2022-07-10T13:58:35;20.50;99.90
8231;DHT22;4156;50.908;6.974;2022-07-10T14:01:00;20.50;99.90
8231;DHT22;4156;50.908;6.974;2022-07-10T14:03:26;20.50;99.90
8231;DHT22;4156;50.908;6.974;2022-07-10T14:05:52;20.90;99.90
8231;DHT22;4156;50.908;6.974;2022-07-10T14:08:18;20.50;99.90
8231;DHT22;4156;50.908;6.974;2022-07-10T14:10:44;20.50;99.90
8231;DHT22;4156;50.908;6.974;2022-07-10T14:13:10;20.50;99.90
8231;DHT22;4156;50.908;6.974;2022-07-10T14:15:36;20.60;99.90
8231;DHT22;4156;50.908;6.974;2022-07-10T14:18:02;20.60;99.90
8231;DHT22;4156;50.908;6.974;2022-07-10T14:20:30;20.60;99.90
8231;DHT22;4156;50.908;6.974;2022-07-10T14:23:16;20.60;99.90
8231;DHT22;4156;50.908;6.974;2022-07-10T14:25:42;20.60;99.90
8231;DHT22;4156;50.908;6.974;2022-07-10T14:28:07;20.60;99.90
8231;DHT22;4156;50.908;6.974;2022-07-10T14:30:33;20.60;99.90
8231;DHT22;4156;50.908;6.974;2022-07-10T14:32:58;20.70;99.90
8231;DHT22;4156;50.908;6.974;2022-07-10T14:35:24;20.90;99.90
8231;DHT22;4156;50.908;6.974;2022-07-10T14:37:49;20.60;99.90
8231;DHT22;4156;50.908;6.974;2022-07-10T14:40:15;20.70;99.90
8231;DHT22;4156;50.908;6.974;2022-07-10T14:42:40;20.80;99.90
8231;DHT22;4156;50.908;6.974;2022-07-10T14:45:06;20.80;99.90
8231;DHT22;4156;50.908;6.974;2022-07-10T14:47:32;20.80;99.90
8231;DHT22;4156;50.908;6.974;2022-07-10T14:49:58;20.80;99.90
8231;DHT22;4156;50.908;6.974;2022-07-10T14:52:24;20.80;99.90
8231;DHT22;4156;50.908;6.974;2022-07-10T14:54:53;20.80;99.90
8231;DHT22;4156;50.908;6.974;2022-07-10T14:57:18;20.80;99.90
8231;DHT22;4156;50.908;6.974;2022-07-10T14:59:44;20.90;99.90
8231;DHT22;4156;50.908;6.974;2022-07-10T15:02:09;20.80;99.90
8231;DHT22;4156;50.908;6.974;2022-07-10T15:04:35;20.80;99.90
8231;DHT22;4156;50.908;6.974;2022-07-10T15:07:01;20.80;99.90
8231;DHT22;4156;50.908;6.974;2022-07-10T15:09:26;20.80;99.90
8231;DHT22;4156;50.908;6.974;2022-07-10T15:11:52;20.80;99.90
8231;DHT22;4156;50.908;6.974;2022-07-10T15:14:19;20.80;99.90
8231;DHT22;4156;50.908;6.974;2022-07-10T15:16:45;20.80;99.90
8231;DHT22;4156;50.908;6.974;2022-07-10T15:19:11;20.90;99.90
8231;DHT22;4156;50.908;6.974;2022-07-10T15:21:37;20.80;99.90
8231;DHT22;4156;50.908;6.974;2022-07-10T15:24:03;20.80;99.90
8231;DHT22;4156;50.908;6.974;2022-07-10T15:26:29;20.90;99.90
8231;DHT22;4156;50.908;6.974;2022-07-10T15:28:54;20.90;99.90
8231;DHT22;4156;50.908;6.974;2022-07-10T15:31:24;20.90;99.90
8231;DHT22;4156;50.908;6.974;2022-07-10T15:33:49;20.90;99.90
8231;DHT22;4156;50.908;6.974;2022-07-10T15:36:15;20.90;99.90
8231;DHT22;4156;50.908;6.974;2022-07-10T15:38:40;20.90;99.90
8231;DHT22;4156;50.908;6.974;2022-07-10T15:41:06;20.90;99.90
8231;DHT22;4156;50.908;6.974;2022-07-10T15:43:32;20.80;99.90
8231;DHT22;4156;50.908;6.974;2022-07-10T15:45:57;20.90;99.90
8231;DHT22;4156;50.908;6.974;2022-07-10T15:48:24;20.90;99.90
8231;DHT22;4156;50.908;6.974;2022-07-10T15:50:49;20.90;99.90
8231;DHT22;4156;50.908;6.974;2022-07-10T15:53:15;20.90;99.90
8231;DHT22;4156;50.908;6.974;2022-07-10T15:55:40;20.80;99.90
8231;DHT22;4156;50.908;6.974;2022-07-10T15:58:06;20.80;99.90
8231;DHT22;4156;50.908;6.974;2022-07-10T16:00:31;20.80;99.90
8231;DHT22;4156;50.908;6.974;2022-07-10T16:02:57;20.80;99.90
8231;DHT22;4156;50.908;6.974;2022-07-10T16:05:24;20.90;99.90
8231;DHT22;4156;50.908;6.974;2022-07-10T16:07:50;20.90;99.90
8231;DHT22;4156;50.908;6.974;2022-07-10T16:10:15;21.00;99.90
8231;DHT22;4156;50.908;6.974;2022-07-10T16:12:41;20.90;99.90
8231;DHT22;4156;50.908;6.974;2022-07-10T16:15:06;20.90;99.90
8231;DHT22;4156;50.908;6.974;2022-07-10T16:17:32;20.90;99.90
8231;DHT22;4156;50.908;6.974;2022-07-10T16:19:58;20.90;99.90
8231;DHT22;4156;50.908;6.974;2022-07-10T16:22:23;20.90;99.90
8231;DHT22;4156;50.908;6.974;2022-07-10T16:24:49;20.90;99.90
8231;DHT22;4156;50.908;6.974;2022-07-10T16:27:33;21.00;99.90
8231;DHT22;4156;50.908;6.974;2022-07-10T16:29:59;20.90;99.90
8231;DHT22;4156;50.908;6.974;2022-07-10T16:32:24;21.00;99.90
8231;DHT22;4156;50.908;6.974;2022-07-10T16:34:50;21.00;99.90